Time;durP1;ratioP1;P1;durP2;ratioP2;P2;SDS_P1;SDS_P2;PMS_P1;PMS_P2;Temp;Humidity;BMP_temperature;BMP_pressure;BME280_temperature;BME280_humidity;BME280_pressure;Samples;Min_cycle;Max_cycle;Signal;HPM_P1;HPM_P2
2024/02/20 00:00:42;;;;;;;18.73;5.43;;;;;;;;;;5059872;28;20056;-60
2024/02/20 00:03:09;;;;;;;20.23;5.20;;;;;;;;;;5052739;28;20052;-60
2024/02/20 00:05:35;;;;;;;16.17;4.45;;;;;;;;;;5052709;28;20155;-60
2024/02/20 00:08:03;;;;;;;19.67;5.82;;;;;;;;;;5060118;28;20048;-60
2024/02/20 00:10:30;;;;;;;18.55;5.63;;;;;;;;;;5066562;28;20494;-60
2024/02/20 00:12:57;;;;;;;18.77;5.13;;;;;;;;;;5061183;28;20049;-60
2024/02/20 00:15:26;;;;;;;19.35;5.10;;;;;;;;;;5052409;28;20052;-60
2024/02/20 00:17:52;;;;;;;17.48;5.75;;;;;;;;;;5052515;28;20063;-60
2024/02/20 00:20:19;;;;;;;19.08;5.38;;;;;;;;;;5053603;28;20045;-60
2024/02/20 00:22:46;;;;;;;19.23;5.88;;;;;;;;;;5052661;28;20048;-60
2024/02/20 00:25:13;;;;;;;21.77;6.00;;;;;;;;;;5052010;28;20379;-60
2024/02/20 00:27:40;;;;;;;19.90;5.90;;;;;;;;;;5052023;28;20049;-60
2024/02/20 00:30:07;;;;;;;21.15;5.68;;;;;;;;;;5066735;28;20525;-61
2024/02/20 00:32:36;;;;;;;18.75;5.00;;;;;;;;;;5056047;28;20503;-61
2024/02/20 00:35:04;;;;;;;22.73;5.88;;;;;;;;;;5060567;28;20044;-60
2024/02/20 00:37:31;;;;;;;18.92;5.45;;;;;;;;;;5073628;28;20496;-60
2024/02/20 00:39:58;;;;;;;20.38;5.80;;;;;;;;;;5068804;28;20053;-60
2024/02/20 00:42:24;;;;;;;18.33;5.80;;;;;;;;;;5068584;28;20060;-60
2024/02/20 00:44:52;;;;;;;15.30;5.57;;;;;;;;;;5059754;28;20083;-60
2024/02/20 00:47:19;;;;;;;19.55;5.28;;;;;;;;;;5059615;28;20052;-60
2024/02/20 00:49:47;;;;;;;21.67;5.70;;;;;;;;;;5059972;28;20057;-60
2024/02/20 00:52:14;;;;;;;21.10;5.53;;;;;;;;;;5056876;28;20065;-60
2024/02/20 00:54:41;;;;;;;29.13;5.88;;;;;;;;;;5056385;28;20056;-60
2024/02/20 00:57:09;;;;;;;20.45;6.32;;;;;;;;;;5059994;28;20052;-60
2024/02/20 00:59:36;;;;;;;22.02;5.68;;;;;;;;;;5060976;28;20059;-60
2024/02/20 01:02:02;;;;;;;16.23;5.35;;;;;;;;;;5058099;28;20057;-60
2024/02/20 01:04:29;;;;;;;26.35;6.20;;;;;;;;;;5064393;28;20064;-60
2024/02/20 01:06:57;;;;;;;17.58;5.57;;;;;;;;;;5073414;28;20048;-60
2024/02/20 01:09:24;;;;;;;24.45;6.20;;;;;;;;;;5072538;28;20044;-60
2024/02/20 01:11:51;;;;;;;29.48;5.93;;;;;;;;;;5069704;28;20435;-60
2024/02/20 01:14:18;;;;;;;19.00;5.10;;;;;;;;;;5068216;28;20062;-60
2024/02/20 01:16:44;;;;;;;21.77;5.53;;;;;;;;;;5068111;28;20190;-59
2024/02/20 01:19:11;;;;;;;17.02;5.20;;;;;;;;;;5055218;28;20144;-60
2024/02/20 01:21:38;;;;;;;23.48;5.18;;;;;;;;;;5058990;28;20048;-59
2024/02/20 01:24:07;;;;;;;25.55;6.70;;;;;;;;;;5058253;28;20052;-60
2024/02/20 01:26:34;;;;;;;24.58;6.28;;;;;;;;;;5055655;28;20476;-60
2024/02/20 01:29:01;;;;;;;19.67;5.95;;;;;;;;;;5062030;28;20052;-60
2024/02/20 01:31:28;;;;;;;24.23;6.45;;;;;;;;;;5058140;28;20045;-60
2024/02/20 01:33:54;;;;;;;19.27;5.43;;;;;;;;;;5070775;28;20048;-60
2024/02/20 01:36:21;;;;;;;32.55;6.13;;;;;;;;;;5062385;28;20063;-60
2024/02/20 01:38:48;;;;;;;19.17;6.05;;;;;;;;;;5056751;28;20041;-59
2024/02/20 01:41:18;;;;;;;24.75;6.05;;;;;;;;;;5057955;28;20048;-60
2024/02/20 01:43:45;;;;;;;19.48;6.05;;;;;;;;;;5056709;28;20048;-60
2024/02/20 01:46:13;;;;;;;21.00;6.13;;;;;;;;;;5061384;28;20055;-60
2024/02/20 01:48:40;;;;;;;23.48;6.20;;;;;;;;;;5059579;28;20057;-59
2024/02/20 01:51:07;;;;;;;18.38;5.78;;;;;;;;;;5061811;28;20049;-59
2024/02/20 01:53:34;;;;;;;25.20;6.97;;;;;;;;;;5062609;28;20455;-59
2024/02/20 01:56:03;;;;;;;20.58;5.95;;;;;;;;;;5055284;28;20453;-60
2024/02/20 01:58:31;;;;;;;23.63;7.10;;;;;;;;;;5055360;28;20480;-60
2024/02/20 02:00:58;;;;;;;26.42;6.90;;;;;;;;;;5063213;28;20045;-60
2024/02/20 02:03:25;;;;;;;23.38;6.82;;;;;;;;;;5057777;28;20080;-59
2024/02/20 02:05:52;;;;;;;22.13;6.75;;;;;;;;;;5053924;28;20060;-60
2024/02/20 02:08:19;;;;;;;23.02;7.35;;;;;;;;;;5062713;28;20049;-60
2024/02/20 02:10:45;;;;;;;24.67;7.38;;;;;;;;;;5063569;28;20045;-60
2024/02/20 02:13:12;;;;;;;20.27;6.97;;;;;;;;;;5057449;28;20061;-60
2024/02/20 02:15:40;;;;;;;23.75;7.28;;;;;;;;;;5060392;28;20053;-60
2024/02/20 02:18:07;;;;;;;26.60;7.40;;;;;;;;;;5067218;28;20064;-59
2024/02/20 02:20:34;;;;;;;21.98;6.80;;;;;;;;;;5074188;28;20407;-60
2024/02/20 02:23:01;;;;;;;17.45;6.88;;;;;;;;;;5058539;28;20049;-60
2024/02/20 02:25:28;;;;;;;27.85;8.15;;;;;;;;;;5059964;28;20071;-60
2024/02/20 02:27:56;;;;;;;26.88;7.57;;;;;;;;;;5069706;28;20049;-59
2024/02/20 02:30:23;;;;;;;28.42;8.80;;;;;;;;;;5062556;28;20056;-60
2024/02/20 02:32:50;;;;;;;25.48;8.05;;;;;;;;;;5061081;28;20072;-60
2024/02/20 02:35:18;;;;;;;30.05;7.95;;;;;;;;;;5057643;28;20484;-61
2024/02/20 02:37:45;;;;;;;24.75;6.53;;;;;;;;;;5059715;28;20045;-59
2024/02/20 02:40:12;;;;;;;20.08;7.00;;;;;;;;;;5064590;28;20495;-60
2024/02/20 02:42:39;;;;;;;30.05;8.18;;;;;;;;;;5062304;28;20055;-59
2024/02/20 02:45:07;;;;;;;25.25;8.75;;;;;;;;;;5063057;28;20055;-60
2024/02/20 02:47:34;;;;;;;23.65;8.38;;;;;;;;;;5056722;28;20049;-59
2024/02/20 02:50:01;;;;;;;31.63;9.75;;;;;;;;;;5057384;28;20056;-60
2024/02/20 02:52:28;;;;;;;24.05;7.90;;;;;;;;;;5059360;28;20055;-60
2024/02/20 02:54:54;;;;;;;25.73;8.48;;;;;;;;;;5057134;28;20045;-60
2024/02/20 02:57:21;;;;;;;29.42;8.73;;;;;;;;;;5071539;28;20052;-60
2024/02/20 02:59:48;;;;;;;24.60;8.32;;;;;;;;;;5062772;28;20045;-59
2024/02/20 03:02:18;;;;;;;30.73;9.82;;;;;;;;;;5057142;28;20439;-60
2024/02/20 03:04:44;;;;;;;28.30;8.85;;;;;;;;;;5057547;28;20049;-60
2024/02/20 03:07:11;;;;;;;26.17;8.60;;;;;;;;;;5058347;28;20048;-59
2024/02/20 03:09:38;;;;;;;26.83;9.02;;;;;;;;;;5068491;28;20399;-60
2024/02/20 03:12:06;;;;;;;29.10;8.45;;;;;;;;;;5054446;28;20407;-60
2024/02/20 03:14:32;;;;;;;25.95;7.97;;;;;;;;;;5057477;28;20053;-60
2024/02/20 03:16:59;;;;;;;26.40;8.70;;;;;;;;;;5070659;28;20056;-60
2024/02/20 03:19:27;;;;;;;28.55;8.25;;;;;;;;;;5055817;28;20060;-60
2024/02/20 03:21:54;;;;;;;28.05;8.15;;;;;;;;;;5056694;28;20053;-59
2024/02/20 03:24:21;;;;;;;24.48;8.77;;;;;;;;;;5052975;28;20056;-60
2024/02/20 03:26:48;;;;;;;27.30;8.32;;;;;;;;;;5063509;28;20075;-60
2024/02/20 03:29:15;;;;;;;22.80;7.90;;;;;;;;;;5063936;28;20049;-60
2024/02/20 03:31:42;;;;;;;34.60;10.38;;;;;;;;;;5061972;28;20052;-60
2024/02/20 03:34:09;;;;;;;26.75;9.00;;;;;;;;;;5059278;28;20062;-59
2024/02/20 03:36:37;;;;;;;23.75;8.77;;;;;;;;;;5067250;28;20048;-59
2024/02/20 03:39:04;;;;;;;30.08;10.23;;;;;;;;;;5071659;28;20044;-59
2024/02/20 03:41:31;;;;;;;32.03;10.02;;;;;;;;;;5052961;28;20057;-60
2024/02/20 03:43:57;;;;;;;29.25;10.75;;;;;;;;;;5057620;28;20407;-60
2024/02/20 03:46:24;;;;;;;31.25;11.45;;;;;;;;;;5064028;28;20049;-60
2024/02/20 03:48:51;;;;;;;27.02;12.20;;;;;;;;;;5058783;28;20049;-60
2024/02/20 03:51:18;;;;;;;28.45;12.50;;;;;;;;;;5057432;28;20052;-59
2024/02/20 03:53:47;;;;;;;32.38;13.20;;;;;;;;;;5072952;28;20056;-60
2024/02/20 03:56:14;;;;;;;31.60;13.20;;;;;;;;;;5072522;28;20057;-59
2024/02/20 03:58:41;;;;;;;30.40;13.35;;;;;;;;;;5072324;28;20052;-59
2024/02/20 04:01:07;;;;;;;31.70;14.60;;;;;;;;;;5066741;28;20064;-60
2024/02/20 04:03:34;;;;;;;30.80;14.48;;;;;;;;;;5052492;28;20052;-60
2024/02/20 04:06:01;;;;;;;30.20;13.70;;;;;;;;;;5052579;28;20052;-60
2024/02/20 04:08:28;;;;;;;38.08;15.95;;;;;;;;;;5055058;28;20060;-59
2024/02/20 04:10:57;;;;;;;35.03;14.73;;;;;;;;;;5071987;28;20052;-59
2024/02/20 04:13:25;;;;;;;32.22;14.85;;;;;;;;;;5072313;28;20049;-60
2024/02/20 04:15:52;;;;;;;35.42;15.00;;;;;;;;;;5072198;28;20057;-61
2024/02/20 04:18:19;;;;;;;36.53;14.80;;;;;;;;;;5059884;28;20407;-60
2024/02/20 04:20:45;;;;;;;35.03;15.05;;;;;;;;;;5057899;28;20045;-60
2024/02/20 04:23:12;;;;;;;30.27;14.27;;;;;;;;;;5070452;28;20052;-60
2024/02/20 04:25:39;;;;;;;34.50;15.20;;;;;;;;;;5065407;28;20404;-59
2024/02/20 04:28:07;;;;;;;34.70;15.30;;;;;;;;;;5054340;28;20057;-60
2024/02/20 04:30:34;;;;;;;34.63;14.50;;;;;;;;;;5054340;28;20420;-59
2024/02/20 04:33:01;;;;;;;35.13;14.77;;;;;;;;;;5058740;28;20053;-60
2024/02/20 04:35:27;;;;;;;34.65;15.00;;;;;;;;;;5066051;28;20059;-60
2024/02/20 04:37:54;;;;;;;30.35;14.48;;;;;;;;;;5064847;28;20052;-60
2024/02/20 04:40:24;;;;;;;30.73;14.77;;;;;;;;;;5053022;28;20041;-59
2024/02/20 04:42:51;;;;;;;37.70;14.77;;;;;;;;;;5053528;28;20484;-60
2024/02/20 04:45:19;;;;;;;35.20;14.60;;;;;;;;;;5051713;28;20056;-59
2024/02/20 04:47:46;;;;;;;32.15;14.88;;;;;;;;;;5058220;28;20049;-59
2024/02/20 04:50:13;;;;;;;34.13;14.80;;;;;;;;;;5052751;28;20241;-59
2024/02/20 04:52:40;;;;;;;33.70;15.60;;;;;;;;;;5063822;28;20048;-59
2024/02/20 04:55:07;;;;;;;38.42;16.98;;;;;;;;;;5054966;28;20057;-60
2024/02/20 04:57:34;;;;;;;38.13;17.05;;;;;;;;;;5051604;28;20064;-59
2024/02/20 05:00:01;;;;;;;38.55;16.77;;;;;;;;;;5051540;28;20060;-59
2024/02/20 05:02:30;;;;;;;38.08;15.75;;;;;;;;;;5051897;28;20068;-59
2024/02/20 05:04:57;;;;;;;32.58;17.17;;;;;;;;;;5061018;28;20389;-59
2024/02/20 05:07:24;;;;;;;36.80;16.27;;;;;;;;;;5053294;28;20395;-60
2024/02/20 05:09:50;;;;;;;34.75;16.67;;;;;;;;;;5053764;28;20048;-60
2024/02/20 05:12:17;;;;;;;39.38;17.40;;;;;;;;;;5052296;28;20421;-59
2024/02/20 05:14:47;;;;;;;36.63;17.20;;;;;;;;;;5051958;28;20423;-60
2024/02/20 05:17:14;;;;;;;43.10;18.42;;;;;;;;;;5055437;28;20061;-59
2024/02/20 05:19:42;;;;;;;41.22;18.13;;;;;;;;;;5062505;28;20736;-59
2024/02/20 05:22:09;;;;;;;39.63;17.70;;;;;;;;;;5068360;28;20044;-59
2024/02/20 05:24:36;;;;;;;36.53;18.20;;;;;;;;;;5058620;28;20132;-59
2024/02/20 05:27:03;;;;;;;42.80;18.88;;;;;;;;;;5061164;28;20059;-60
2024/02/20 05:29:30;;;;;;;50.40;21.42;;;;;;;;;;5071198;28;20056;-59
2024/02/20 05:31:57;;;;;;;38.10;18.20;;;;;;;;;;5058505;28;20060;-60
2024/02/20 05:34:24;;;;;;;37.88;18.77;;;;;;;;;;5054751;28;20060;-59
2024/02/20 05:36:52;;;;;;;40.22;19.63;;;;;;;;;;5058634;28;20053;-60
2024/02/20 05:39:19;;;;;;;38.75;18.98;;;;;;;;;;5055019;28;20056;-59
2024/02/20 05:41:46;;;;;;;45.88;19.80;;;;;;;;;;5055336;28;20060;-59
2024/02/20 05:44:13;;;;;;;40.10;20.58;;;;;;;;;;5054897;28;20491;-59
2024/02/20 05:46:40;;;;;;;38.05;20.23;;;;;;;;;;5071596;28;20060;-59
2024/02/20 05:49:07;;;;;;;45.72;20.55;;;;;;;;;;5072555;28;20174;-59
2024/02/20 05:51:34;;;;;;;42.70;19.98;;;;;;;;;;5058649;28;20049;-59
2024/02/20 05:54:02;;;;;;;42.90;20.58;;;;;;;;;;5074119;28;20057;-61
2024/02/20 05:56:31;;;;;;;45.28;19.10;;;;;;;;;;5068660;28;20400;-59
2024/02/20 05:58:58;;;;;;;41.50;18.75;;;;;;;;;;5055551;28;20049;-59
2024/02/20 06:01:25;;;;;;;49.28;22.38;;;;;;;;;;5063284;28;20045;-59
2024/02/20 06:03:52;;;;;;;39.55;21.05;;;;;;;;;;5064402;28;20060;-59
2024/02/20 06:06:19;;;;;;;52.47;23.55;;;;;;;;;;5054339;28;20422;-59
2024/02/20 06:08:45;;;;;;;42.22;20.52;;;;;;;;;;5059424;28;20049;-60
2024/02/20 06:11:14;;;;;;;40.25;20.00;;;;;;;;;;5062378;28;20045;-59
2024/02/20 06:13:41;;;;;;;39.75;19.08;;;;;;;;;;5065583;28;20415;-59
2024/02/20 06:16:08;;;;;;;44.08;20.08;;;;;;;;;;5058278;28;20052;-59
2024/02/20 06:18:34;;;;;;;40.72;19.00;;;;;;;;;;5054983;28;20068;-59
2024/02/20 06:21:02;;;;;;;49.65;19.42;;;;;;;;;;5059143;28;20055;-60
2024/02/20 06:23:28;;;;;;;45.30;20.83;;;;;;;;;;5074019;28;20412;-59
2024/02/20 06:25:55;;;;;;;47.85;22.33;;;;;;;;;;5074143;28;20060;-60
2024/02/20 06:28:24;;;;;;;40.65;19.65;;;;;;;;;;5066482;28;20076;-59
2024/02/20 06:30:51;;;;;;;37.85;19.17;;;;;;;;;;5056856;28;20048;-59
2024/02/20 06:33:18;;;;;;;38.17;19.58;;;;;;;;;;5058945;28;20102;-59
2024/02/20 06:35:44;;;;;;;45.03;19.60;;;;;;;;;;5057483;28;20053;-59
2024/02/20 06:38:11;;;;;;;38.45;18.40;;;;;;;;;;5053001;28;20071;-59
2024/02/20 06:40:38;;;;;;;38.08;18.45;;;;;;;;;;5053969;28;20057;-59
2024/02/20 06:43:05;;;;;;;38.35;19.17;;;;;;;;;;5053863;28;20392;-60
2024/02/20 06:45:33;;;;;;;41.30;18.90;;;;;;;;;;5053371;28;20404;-59
2024/02/20 06:48:00;;;;;;;36.53;16.60;;;;;;;;;;5053758;28;20057;-59
2024/02/20 06:50:26;;;;;;;35.70;17.65;;;;;;;;;;5053336;28;20052;-59
2024/02/20 06:52:53;;;;;;;36.95;18.75;;;;;;;;;;5053761;28;20381;-59
2024/02/20 06:55:20;;;;;;;41.45;17.95;;;;;;;;;;5053370;28;20492;-60
2024/02/20 06:57:47;;;;;;;34.75;17.10;;;;;;;;;;5053862;28;20055;-61
2024/02/20 07:00:14;;;;;;;40.05;17.50;;;;;;;;;;5053206;28;20064;-60
2024/02/20 07:02:43;;;;;;;34.53;16.38;;;;;;;;;;5054093;28;20442;-60
2024/02/20 07:05:10;;;;;;;32.60;15.95;;;;;;;;;;5073304;28;20064;-60
2024/02/20 07:07:37;;;;;;;42.05;17.88;;;;;;;;;;5073379;28;20056;-59
2024/02/20 07:10:04;;;;;;;37.92;15.45;;;;;;;;;;5073298;28;20052;-60
2024/02/20 07:12:31;;;;;;;34.95;15.63;;;;;;;;;;5073564;28;20499;-59
2024/02/20 07:14:58;;;;;;;33.85;14.50;;;;;;;;;;5072797;28;20419;-60
2024/02/20 07:17:26;;;;;;;28.63;14.50;;;;;;;;;;5073292;28;20052;-60
2024/02/20 07:19:55;;;;;;;26.65;13.30;;;;;;;;;;5072991;28;20052;-60
2024/02/20 07:22:22;;;;;;;35.67;15.52;;;;;;;;;;5073038;28;20059;-60
2024/02/20 07:24:49;;;;;;;32.47;13.52;;;;;;;;;;5072929;28;20052;-60
2024/02/20 07:27:16;;;;;;;37.55;14.65;;;;;;;;;;5073066;28;20525;-61
2024/02/20 07:29:42;;;;;;;33.15;13.93;;;;;;;;;;5072819;28;20475;-60
2024/02/20 07:32:10;;;;;;;31.27;13.40;;;;;;;;;;5072636;28;20055;-60
2024/02/20 07:34:38;;;;;;;23.83;12.20;;;;;;;;;;5072953;28;20057;-60
2024/02/20 07:37:06;;;;;;;30.15;12.93;;;;;;;;;;5061903;28;20064;-61
2024/02/20 07:39:33;;;;;;;31.70;12.98;;;;;;;;;;5052719;28;20049;-60
2024/02/20 07:42:00;;;;;;;29.67;11.60;;;;;;;;;;5067318;28;20052;-60
2024/02/20 07:44:26;;;;;;;31.30;12.95;;;;;;;;;;5071843;28;20063;-61
2024/02/20 07:46:54;;;;;;;29.55;12.43;;;;;;;;;;5072511;28;20064;-60
2024/02/20 07:49:20;;;;;;;31.00;12.35;;;;;;;;;;5072805;28;20353;-59
2024/02/20 07:51:47;;;;;;;32.50;12.95;;;;;;;;;;5072261;28;20045;-60
2024/02/20 07:54:16;;;;;;;30.60;13.63;;;;;;;;;;5072472;28;20518;-60
2024/02/20 07:56:43;;;;;;;32.42;13.68;;;;;;;;;;5072602;28;20052;-60
2024/02/20 07:59:11;;;;;;;29.17;11.90;;;;;;;;;;5072506;28;20048;-60
2024/02/20 08:01:38;;;;;;;28.95;12.48;;;;;;;;;;5072562;28;20048;-60
2024/02/20 08:04:05;;;;;;;33.00;11.95;;;;;;;;;;5057657;28;20053;-60
2024/02/20 08:06:32;;;;;;;27.88;11.75;;;;;;;;;;5052250;28;20049;-60
2024/02/20 08:08:59;;;;;;;30.17;12.70;;;;;;;;;;5052224;28;20083;-60
2024/02/20 08:11:27;;;;;;;26.83;12.18;;;;;;;;;;5052164;28;20045;-60
2024/02/20 08:13:54;;;;;;;34.83;13.70;;;;;;;;;;5052858;28;20053;-60
2024/02/20 08:16:21;;;;;;;34.10;13.20;;;;;;;;;;5058571;28;20057;-60
2024/02/20 08:18:48;;;;;;;27.17;12.15;;;;;;;;;;5072007;28;20056;-60
2024/02/20 08:21:14;;;;;;;28.20;14.50;;;;;;;;;;5072204;28;20056;-60
2024/02/20 08:23:42;;;;;;;29.73;12.23;;;;;;;;;;5072253;28;20415;-60
2024/02/20 08:26:09;;;;;;;27.27;12.55;;;;;;;;;;5058657;28;20059;-60
2024/02/20 08:28:38;;;;;;;26.15;12.95;;;;;;;;;;5061135;28;20064;-60
2024/02/20 08:31:04;;;;;;;30.67;13.68;;;;;;;;;;5063317;28;20407;-61
2024/02/20 08:33:31;;;;;;;27.75;13.43;;;;;;;;;;5051767;28;20144;-60
2024/02/20 08:35:58;;;;;;;27.40;12.07;;;;;;;;;;5051301;28;20147;-60
2024/02/20 08:38:25;;;;;;;27.70;12.38;;;;;;;;;;5051339;28;20057;-60
2024/02/20 08:40:52;;;;;;;31.52;13.15;;;;;;;;;;5060689;28;20053;-60
2024/02/20 08:43:18;;;;;;;24.48;12.25;;;;;;;;;;5061029;28;20061;-60
2024/02/20 08:45:47;;;;;;;23.42;12.80;;;;;;;;;;5057362;28;20049;-60
2024/02/20 08:48:13;;;;;;;24.83;12.65;;;;;;;;;;5060782;28;20492;-61
2024/02/20 08:50:40;;;;;;;27.48;13.55;;;;;;;;;;5061799;28;20063;-61
2024/02/20 08:53:10;;;;;;;25.92;12.98;;;;;;;;;;5060810;28;20075;-61
2024/02/20 08:55:37;;;;;;;27.67;13.63;;;;;;;;;;5064041;28;20052;-60
2024/02/20 08:58:04;;;;;;;30.13;13.40;;;;;;;;;;5067527;28;20049;-62
2024/02/20 09:00:31;;;;;;;32.17;14.05;;;;;;;;;;5075947;28;20059;-60
2024/02/20 09:02:59;;;;;;;26.65;13.23;;;;;;;;;;5075815;28;20061;-60
2024/02/20 09:05:26;;;;;;;26.75;13.50;;;;;;;;;;5075716;28;20059;-61
2024/02/20 09:07:53;;;;;;;26.92;13.48;;;;;;;;;;5075854;28;20079;-60
2024/02/20 09:10:20;;;;;;;30.55;14.60;;;;;;;;;;5075308;28;20062;-61
2024/02/20 09:12:47;;;;;;;25.25;13.10;;;;;;;;;;5075862;28;20071;-60
2024/02/20 09:15:14;;;;;;;26.10;12.45;;;;;;;;;;5075520;28;20441;-60
2024/02/20 09:17:40;;;;;;;25.05;12.18;;;;;;;;;;5075746;28;20048;-60
2024/02/20 09:20:11;;;;;;;27.42;12.60;;;;;;;;;;5075219;28;20057;-60
2024/02/20 09:22:38;;;;;;;26.13;12.32;;;;;;;;;;5075543;28;20044;-60
2024/02/20 09:25:05;;;;;;;27.10;11.95;;;;;;;;;;5057230;28;20068;-60
2024/02/20 09:27:32;;;;;;;24.80;11.23;;;;;;;;;;5055345;28;20057;-61
2024/02/20 09:29:59;;;;;;;29.15;12.07;;;;;;;;;;5055197;28;20456;-60
2024/02/20 09:32:26;;;;;;;24.48;11.25;;;;;;;;;;5054804;28;20052;-60
2024/02/20 09:34:53;;;;;;;23.58;11.25;;;;;;;;;;5054912;28;20353;-60
2024/02/20 09:37:21;;;;;;;21.40;11.65;;;;;;;;;;5056352;28;20060;-60
2024/02/20 09:39:48;;;;;;;21.98;10.70;;;;;;;;;;5054859;28;20064;-60
2024/02/20 09:42:20;;;;;;;25.33;11.70;;;;;;;;;;5053550;28;20048;-60
2024/02/20 09:44:48;;;;;;;24.35;11.80;;;;;;;;;;5054468;28;20052;-60
2024/02/20 09:47:15;;;;;;;24.92;12.93;;;;;;;;;;5054865;28;20049;-61
2024/02/20 09:49:42;;;;;;;25.08;11.43;;;;;;;;;;5054681;28;20060;-60
2024/02/20 09:52:09;;;;;;;25.80;11.65;;;;;;;;;;5054392;28;20053;-61
2024/02/20 09:54:38;;;;;;;24.30;11.32;;;;;;;;;;5074502;28;20487;-62
2024/02/20 09:57:05;;;;;;;25.38;11.77;;;;;;;;;;5064004;28;20057;-65
2024/02/20 09:59:31;;;;;;;27.73;12.45;;;;;;;;;;5054507;28;20475;-66
2024/02/20 10:01:59;;;;;;;23.52;12.07;;;;;;;;;;5053536;28;20056;-64
2024/02/20 10:04:32;;;;;;;21.88;11.07;;;;;;;;;;5052729;28;20053;-64
2024/02/20 10:07:03;;;;;;;22.75;11.60;;;;;;;;;;5051893;28;20053;-64
2024/02/20 10:09:31;;;;;;;23.75;11.05;;;;;;;;;;5052334;28;20053;-65
2024/02/20 10:11:59;;;;;;;27.38;11.75;;;;;;;;;;5052558;28;20057;-65
2024/02/20 10:14:29;;;;;;;25.10;10.02;;;;;;;;;;5052122;28;20132;-65
2024/02/20 10:17:00;;;;;;;23.73;10.35;;;;;;;;;;5052600;28;20049;-65
2024/02/20 10:19:26;;;;;;;23.08;9.82;;;;;;;;;;5053590;28;20064;-65
2024/02/20 10:21:53;;;;;;;23.63;9.95;;;;;;;;;;5052584;28;20048;-64
2024/02/20 10:24:20;;;;;;;21.55;9.35;;;;;;;;;;5052624;28;20504;-65
2024/02/20 10:26:47;;;;;;;19.35;9.18;;;;;;;;;;5053649;28;20068;-65
2024/02/20 10:29:17;;;;;;;29.77;9.63;;;;;;;;;;5053547;28;20053;-65
2024/02/20 10:31:43;;;;;;;27.58;11.27;;;;;;;;;;5053360;28;20057;-65
2024/02/20 10:34:10;;;;;;;22.33;9.82;;;;;;;;;;5053758;28;20053;-65
2024/02/20 10:36:37;;;;;;;22.35;10.30;;;;;;;;;;5054037;28;20506;-65
2024/02/20 10:39:04;;;;;;;22.52;10.05;;;;;;;;;;5053995;28;20056;-65
2024/02/20 10:41:31;;;;;;;27.95;10.95;;;;;;;;;;5053763;28;20053;-65
2024/02/20 10:43:57;;;;;;;25.17;10.30;;;;;;;;;;5053688;28;20049;-65
2024/02/20 10:46:26;;;;;;;20.98;9.52;;;;;;;;;;5053822;28;20069;-65
2024/02/20 10:48:55;;;;;;;20.88;10.25;;;;;;;;;;5053610;28;20052;-65
2024/02/20 10:51:26;;;;;;;25.70;10.02;;;;;;;;;;5053430;28;20115;-65
2024/02/20 10:53:53;;;;;;;23.25;9.68;;;;;;;;;;5053470;28;20049;-66
2024/02/20 10:56:21;;;;;;;29.63;9.80;;;;;;;;;;5053598;28;20057;-65
2024/02/20 10:58:49;;;;;;;24.98;9.70;;;;;;;;;;5053694;28;20053;-65
2024/02/20 11:01:16;;;;;;;18.70;8.70;;;;;;;;;;5053337;28;20407;-65
2024/02/20 11:03:45;;;;;;;21.95;9.25;;;;;;;;;;5053262;28;20055;-66
2024/02/20 11:06:12;;;;;;;24.00;9.48;;;;;;;;;;5053429;28;20059;-66
2024/02/20 11:08:39;;;;;;;24.58;8.68;;;;;;;;;;5053207;28;20067;-65
2024/02/20 11:11:10;;;;;;;22.92;8.98;;;;;;;;;;5053337;28;20052;-65
2024/02/20 11:13:37;;;;;;;25.30;8.85;;;;;;;;;;5053274;28;20053;-66
2024/02/20 11:16:08;;;;;;;25.08;9.77;;;;;;;;;;5053335;28;20053;-65
2024/02/20 11:18:35;;;;;;;20.38;8.63;;;;;;;;;;5053166;28;20049;-66
2024/02/20 11:21:05;;;;;;;24.67;9.50;;;;;;;;;;5053225;28;20067;-66
2024/02/20 11:23:32;;;;;;;27.55;9.27;;;;;;;;;;5053163;28;20056;-66
2024/02/20 11:26:08;;;;;;;26.20;10.38;;;;;;;;;;5052831;28;20068;-65
2024/02/20 11:28:35;;;;;;;23.95;10.82;;;;;;;;;;5052733;28;20523;-65
2024/02/20 11:31:02;;;;;;;16.23;7.80;;;;;;;;;;5053098;28;20399;-65
2024/02/20 11:33:30;;;;;;;19.15;7.93;;;;;;;;;;5053033;28;20514;-65
2024/02/20 11:35:57;;;;;;;22.35;8.70;;;;;;;;;;5052794;28;20079;-64
2024/02/20 11:38:27;;;;;;;24.30;8.75;;;;;;;;;;5052685;28;20109;-65
2024/02/20 11:40:54;;;;;;;23.52;8.18;;;;;;;;;;5052466;28;20048;-65
2024/02/20 11:43:22;;;;;;;23.02;8.52;;;;;;;;;;5052431;28;20059;-65
2024/02/20 11:45:50;;;;;;;25.27;8.85;;;;;;;;;;5052495;28;20518;-65
2024/02/20 11:48:18;;;;;;;16.25;7.38;;;;;;;;;;5052554;28;20059;-66
2024/02/20 11:50:45;;;;;;;21.50;8.52;;;;;;;;;;5052594;28;20060;-65
2024/02/20 11:53:12;;;;;;;21.40;8.40;;;;;;;;;;5052623;28;20057;-66
2024/02/20 11:55:41;;;;;;;19.63;8.10;;;;;;;;;;5052396;28;20451;-66
2024/02/20 11:58:08;;;;;;;22.80;7.38;;;;;;;;;;5052917;28;20140;-66
2024/02/20 12:00:36;;;;;;;20.35;7.78;;;;;;;;;;5052573;28;20048;-66
2024/02/20 12:03:03;;;;;;;19.10;7.90;;;;;;;;;;5052060;28;20044;-65
2024/02/20 12:05:37;;;;;;;18.13;7.80;;;;;;;;;;5052614;28;20056;-65
2024/02/20 12:08:11;;;;;;;18.63;7.80;;;;;;;;;;5052878;28;20045;-65
2024/02/20 12:10:37;;;;;;;20.23;7.50;;;;;;;;;;5052414;28;20060;-66
2024/02/20 12:13:12;;;;;;;20.70;7.47;;;;;;;;;;5051913;28;20048;-65
2024/02/20 12:15:40;;;;;;;24.00;8.13;;;;;;;;;;5052151;28;20053;-62
2024/02/20 12:18:08;;;;;;;21.08;8.13;;;;;;;;;;5052034;28;20064;-65
2024/02/20 12:20:34;;;;;;;19.00;8.65;;;;;;;;;;5052370;28;20056;-66
2024/02/20 12:23:01;;;;;;;19.00;7.78;;;;;;;;;;5052450;28;20415;-65
2024/02/20 12:25:28;;;;;;;23.65;8.45;;;;;;;;;;5052247;28;20052;-65
2024/02/20 12:27:55;;;;;;;16.95;7.63;;;;;;;;;;5051950;28;20056;-65
2024/02/20 12:30:23;;;;;;;22.20;8.10;;;;;;;;;;5057460;28;20060;-65
2024/02/20 12:32:50;;;;;;;17.55;7.95;;;;;;;;;;5058969;28;20064;-65
2024/02/20 12:35:17;;;;;;;18.23;8.05;;;;;;;;;;5058915;28;20071;-65
2024/02/20 12:37:45;;;;;;;20.10;8.60;;;;;;;;;;5058878;28;20052;-66
2024/02/20 12:40:15;;;;;;;15.75;7.95;;;;;;;;;;5063845;28;20053;-66
2024/02/20 12:42:42;;;;;;;17.33;8.55;;;;;;;;;;5069043;28;20407;-65
2024/02/20 12:45:09;;;;;;;20.63;8.02;;;;;;;;;;5067516;28;20048;-65
2024/02/20 12:47:37;;;;;;;19.08;8.60;;;;;;;;;;5067510;28;20056;-66
2024/02/20 12:50:05;;;;;;;18.20;7.95;;;;;;;;;;5067707;28;20044;-65
2024/02/20 12:52:32;;;;;;;21.85;8.73;;;;;;;;;;5067397;28;20045;-67
2024/02/20 12:54:59;;;;;;;19.48;8.27;;;;;;;;;;5069222;28;20072;-66
2024/02/20 12:57:27;;;;;;;19.45;8.38;;;;;;;;;;5067463;28;20041;-66
2024/02/20 12:59:53;;;;;;;16.83;8.15;;;;;;;;;;5068155;28;20051;-65
2024/02/20 13:02:20;;;;;;;19.70;8.13;;;;;;;;;;5069273;28;20060;-65
2024/02/20 13:04:48;;;;;;;21.85;8.75;;;;;;;;;;5067512;28;20048;-65
2024/02/20 13:07:15;;;;;;;21.27;8.38;;;;;;;;;;5067926;28;20490;-64
2024/02/20 13:09:42;;;;;;;17.95;8.13;;;;;;;;;;5067685;28;20076;-65
2024/02/20 13:12:11;;;;;;;18.88;9.13;;;;;;;;;;5067692;28;20045;-63
2024/02/20 13:14:38;;;;;;;21.10;8.27;;;;;;;;;;5067399;28;20394;-65
2024/02/20 13:17:05;;;;;;;22.25;8.63;;;;;;;;;;5069100;28;20071;-63
2024/02/20 13:19:32;;;;;;;25.80;8.73;;;;;;;;;;5067599;28;20052;-64
2024/02/20 13:22:00;;;;;;;16.83;8.30;;;;;;;;;;5069917;28;20052;-64
2024/02/20 13:24:27;;;;;;;22.73;9.20;;;;;;;;;;5066912;28;20041;-64
2024/02/20 13:26:54;;;;;;;27.02;9.02;;;;;;;;;;5068030;28;20055;-65
2024/02/20 13:29:21;;;;;;;23.67;8.65;;;;;;;;;;5069135;28;20067;-63
2024/02/20 13:31:48;;;;;;;17.10;8.48;;;;;;;;;;5068955;28;20052;-64
2024/02/20 13:34:15;;;;;;;20.80;8.60;;;;;;;;;;5063543;28;20056;-63
2024/02/20 13:36:42;;;;;;;23.35;9.02;;;;;;;;;;5061677;28;20044;-65
2024/02/20 13:39:10;;;;;;;23.52;8.65;;;;;;;;;;5067116;28;20055;-63
2024/02/20 13:41:38;;;;;;;21.55;9.32;;;;;;;;;;5063856;28;20494;-63
2024/02/20 13:44:05;;;;;;;19.90;7.72;;;;;;;;;;5063752;28;20487;-64
2024/02/20 13:46:32;;;;;;;22.63;7.85;;;;;;;;;;5066131;28;20091;-63
2024/02/20 13:49:00;;;;;;;16.98;7.63;;;;;;;;;;5064614;28;20052;-62
2024/02/20 13:51:26;;;;;;;19.35;7.82;;;;;;;;;;5065105;28;20045;-64
2024/02/20 13:53:53;;;;;;;20.48;7.72;;;;;;;;;;5063684;28;20045;-63
2024/02/20 13:56:23;;;;;;;20.23;7.30;;;;;;;;;;5064460;28;20395;-65
2024/02/20 13:58:50;;;;;;;17.30;7.25;;;;;;;;;;5056034;28;20053;-63
2024/02/20 14:01:17;;;;;;;17.85;6.35;;;;;;;;;;5057454;28;20052;-63
2024/02/20 14:03:44;;;;;;;16.90;6.60;;;;;;;;;;5062126;28;20057;-64
2024/02/20 14:06:11;;;;;;;21.42;6.90;;;;;;;;;;5065303;28;20048;-64
2024/02/20 14:08:41;;;;;;;18.90;6.72;;;;;;;;;;5063540;28;20048;-64
2024/02/20 14:11:11;;;;;;;16.02;5.45;;;;;;;;;;5062895;28;20056;-63
2024/02/20 14:13:39;;;;;;;19.48;6.43;;;;;;;;;;5064411;28;20502;-64
2024/02/20 14:16:07;;;;;;;12.05;5.57;;;;;;;;;;5064261;28;20056;-64
2024/02/20 14:18:34;;;;;;;15.57;5.73;;;;;;;;;;5060362;28;20064;-64
2024/02/20 14:21:01;;;;;;;18.77;6.32;;;;;;;;;;5063753;28;20056;-63
2024/02/20 14:23:28;;;;;;;18.23;6.85;;;;;;;;;;5062381;28;20491;-63